Flight Track Log - Related Links

Times and Time Zones

All times are in EST time to prevent confusion due to time zone crossing. See the AVN10 flight status page for this flight to view local times or setup timezone preferences in your user account.

Time Position Orientation Groundspeed Altitude Reporting Facility
EST Latitude Longitude Course Direction KTS MPH feet Rate Location/Type
Fri 11:36:00 PM -18.0113 168.1608 206° Southwest  Level FlightAware Approximate
Fri 11:37:00 PM -18.1153 168.1077 206° Southwest  Level FlightAware Approximate
Fri 11:38:00 PM -18.2193 168.0545 206° Southwest  Level FlightAware Approximate
Fri 11:39:00 PM -18.3232 168.0013 206° Southwest  Level FlightAware Approximate
Fri 11:40:00 PM -18.4271 167.9480 206° Southwest  Level FlightAware Approximate
Fri 11:41:00 PM -18.5310 167.8946 206° Southwest  Level FlightAware Approximate
Fri 11:42:00 PM -18.6186 167.8150 204° Southwest  Level Estimated
Fri 11:43:00 PM -18.7244 167.7660 204° Southwest  Level FlightAware Approximate
Fri 11:44:00 PM -18.8303 167.7169 204° Southwest  Level FlightAware Approximate
Fri 11:45:00 PM -18.9361 167.6678 204° Southwest  Level FlightAware Approximate
Fri 11:46:00 PM -19.0420 167.6187 204° Southwest  Level FlightAware Approximate
Fri 11:47:00 PM -19.1478 167.5694 204° Southwest  Level FlightAware Approximate
Fri 11:48:00 PM -19.2536 167.5201 204° Southwest  Level FlightAware Approximate
Fri 11:49:00 PM -19.3593 167.4708 204° Southwest  Level FlightAware Approximate
Fri 11:50:00 PM -19.4651 167.4213 204° Southwest  Level FlightAware Approximate
Fri 11:51:00 PM -19.5709 167.3718 204° Southwest  Level FlightAware Approximate
Fri 11:52:00 PM -19.6766 167.3223 204° Southwest  Level FlightAware Approximate
Fri 11:53:00 PM -19.7823 167.2727 204° Southwest  Level FlightAware Approximate
Fri 11:54:00 PM -19.8881 167.2230 204° Southwest  Level FlightAware Approximate
Fri 11:55:00 PM -19.9937 167.1732 204° Southwest  Level FlightAware Approximate
Fri 11:56:00 PM -20.0994 167.1234 204° Southwest  Level FlightAware Approximate
Fri 11:57:00 PM -20.2051 167.0735 204° Southwest  Level FlightAware Approximate
Fri 11:58:00 PM -20.3108 167.0235 204° Southwest  Level FlightAware Approximate
Fri 11:59:00 PM -20.4164 166.9735 204° Southwest  Level FlightAware Approximate
Sat 12:00:00 AM -20.5220 166.9234 204° Southwest  Level FlightAware Approximate
Sat 12:01:00 AM -20.6277 166.8732 204° Southwest  Level FlightAware Approximate
Sat 12:02:00 AM -20.7333 166.8230 204° Southwest  Level FlightAware Approximate
Sat 12:03:00 AM -20.8389 166.7727 204° Southwest  Level FlightAware Approximate
Sat 12:04:00 AM -20.9444 166.7223 204° Southwest  Level FlightAware Approximate
Sat 12:05:00 AM -21.0285 166.6374 224° Southwest  Level Estimated
Sat 12:06:00 AM -21.1215 166.5638 216° Southwest  Level FlightAware Approximate
Sat 12:07:00 AM -21.2145 166.4902 216° Southwest  Level FlightAware Approximate
Sat 12:08:00 AM -21.3074 166.4165 216° Southwest  Level FlightAware Approximate
Sat 12:09:00 AM -21.4003 166.3426 216° Southwest  Level FlightAware Approximate
Sat 12:10:00 AM -21.4932 166.2687 217° Southwest  Level FlightAware Approximate
Sat 12:11:00 AM -21.5861 166.1947 217° Southwest  Level FlightAware Approximate
Sat 12:12:00 AM -21.6789 166.1206 217° Southwest  Level FlightAware Approximate
Sat 12:13:00 AM -21.7717 166.0464 217° Southwest  Level FlightAware Approximate
Sat 12:14:00 AM -21.8644 165.9721 217° Southwest  Level FlightAware Approximate
Sat 12:15:00 AM -21.9571 165.8977 217° Southwest  Level FlightAware Approximate
Sat 12:16:00 AM -22.0498 165.8232 217° Southwest  Level FlightAware Approximate
Sat 12:17:00 AM -22.1425 165.7486 217° Southwest  Level FlightAware Approximate
Sat 12:18:00 AM -22.2351 165.6739 217° Southwest  Level FlightAware Approximate
Sat 12:19:00 AM -22.3276 165.5991 217° Southwest  Level FlightAware Approximate
Sat 12:20:00 AM -22.4202 165.5242 217° Southwest  Level FlightAware Approximate
Sat 12:21:00 AM -22.5127 165.4492 217° Southwest  Level FlightAware Approximate
Sat 12:22:00 AM -22.6052 165.3741 217° Southwest  Level FlightAware Approximate
Sat 12:23:00 AM -22.6875 165.2862 225° Southwest  Level Estimated
Sat 12:24:00 AM -22.7735 165.2024 222° Southwest  Level FlightAware Approximate
Sat 12:25:00 AM -22.8594 165.1186 222° Southwest  Level FlightAware Approximate
Sat 12:26:00 AM -22.9453 165.0346 222° Southwest  Level FlightAware Approximate
Sat 12:27:00 AM -23.0312 164.9506 222° Southwest  Level FlightAware Approximate
Sat 12:28:00 AM -23.1170 164.8664 222° Southwest  Level FlightAware Approximate
Sat 12:29:00 AM -23.2027 164.7821 222° Southwest  Level FlightAware Approximate
Sat 12:30:00 AM -23.2885 164.6977 222° Southwest  Level FlightAware Approximate
Sat 12:31:00 AM -23.3741 164.6132 222° Southwest  Level FlightAware Approximate
Sat 12:32:00 AM -23.4598 164.5286 222° Southwest  Level FlightAware Approximate
Sat 12:33:00 AM -23.5454 164.4439 222° Southwest  Level FlightAware Approximate
Sat 12:34:00 AM -23.6309 164.3591 222° Southwest  Level FlightAware Approximate
Sat 12:35:00 AM -23.7164 164.2742 222° Southwest  Level FlightAware Approximate
Sat 12:36:00 AM -23.8018 164.1891 222° Southwest  Level FlightAware Approximate
Sat 12:37:00 AM -23.8872 164.1039 222° Southwest  Level FlightAware Approximate
Sat 12:38:00 AM -23.9726 164.0187 222° Southwest  Level FlightAware Approximate
Sat 12:39:00 AM -24.0579 163.9333 222° Southwest  Level FlightAware Approximate
Sat 12:40:00 AM -24.1432 163.8478 222° Southwest  Level FlightAware Approximate
Sat 12:41:00 AM -24.2241 163.7573 225° Southwest  Level Estimated
Sat 12:42:00 AM -24.3064 163.6683 225° Southwest  Level FlightAware Approximate
Sat 12:43:00 AM -24.3886 163.5791 225° Southwest  Level FlightAware Approximate
Sat 12:44:00 AM -24.4708 163.4899 225° Southwest  Level FlightAware Approximate
Sat 12:45:00 AM -24.5529 163.4005 225° Southwest  Level FlightAware Approximate
Sat 12:46:00 AM -24.6350 163.3110 225° Southwest  Level FlightAware Approximate
Sat 12:46:50 AM -24.6618 163.3526 224° Southwest 34,000  Level Aus ATC (Calculated)
Sat 12:47:26 AM -24.7188 163.2892 224° Southwest 34,000  Level Aus ATC (Calculated)
Sat 12:48:00 AM -24.7538 163.2503 225° Southwest  Level FlightAware Approximate
Sat 12:49:00 AM -24.8424 163.1516 225° Southwest  Level FlightAware Approximate
Sat 12:50:00 AM -24.9212 163.0637 225° Southwest  Level FlightAware Approximate
Sat 12:50:26 AM -24.9993 162.9763 224° Southwest 34,000  Level Aus ATC (Calculated)
Sat 12:51:00 AM -25.0509 162.9185 224° Southwest 34,000  Level Aus ATC (Calculated)
Sat 12:52:00 AM -25.1295 162.8302 225° Southwest  Level FlightAware Approximate
Sat 12:53:00 AM -25.2081 162.7419 225° Southwest  Level FlightAware Approximate
Sat 12:53:44 AM -25.3047 162.6331 224° Southwest 34,000  Level Aus ATC (Calculated)
Sat 12:54:00 AM -25.2866 162.6534 226° Southwest  Level FlightAware Approximate
Sat 12:55:00 AM -25.4031 162.5219 226° Southwest  Level FlightAware Approximate
Sat 12:55:21 AM -25.4448 162.4747 224° Southwest 34,000  Level Aus ATC (Calculated)
Sat 12:57:00 AM -25.5728 162.3296 226° Southwest  Level FlightAware Approximate
Sat 12:58:00 AM -25.6503 162.2414 226° Southwest  Level FlightAware Approximate
Sat 12:59:00 AM -25.7278 162.1532 226° Southwest  Level FlightAware Approximate
Sat 01:00:00 AM -25.8052 162.0648 226° Southwest  Level FlightAware Approximate
Sat 01:01:00 AM -25.8825 161.9764 226° Southwest  Level FlightAware Approximate
Sat 01:02:00 AM -25.9598 161.8878 226° Southwest  Level FlightAware Approximate
Sat 01:03:00 AM -26.0371 161.7991 226° Southwest  Level FlightAware Approximate
Sat 01:04:00 AM -26.1143 161.7103 226° Southwest  Level FlightAware Approximate
Sat 01:05:00 AM -26.1914 161.6213 226° Southwest  Level FlightAware Approximate
Sat 01:06:00 AM -26.2685 161.5323 226° Southwest  Level FlightAware Approximate
Sat 01:07:00 AM -26.3455 161.4431 226° Southwest  Level FlightAware Approximate
Sat 01:08:00 AM -26.4225 161.3538 226° Southwest  Level FlightAware Approximate
Sat 01:09:00 AM -26.4994 161.2644 226° Southwest  Level FlightAware Approximate
Sat 01:10:00 AM -26.5763 161.1749 226° Southwest  Level FlightAware Approximate
Sat 01:10:36 AM -26.9471 160.7403 223° Southwest 34,000  Level Aus ATC (Calculated)
Sat 01:11:00 AM -26.6531 161.0852 226° Southwest  Level FlightAware Approximate
Sat 01:12:00 AM -27.0542 160.6139 226° Southwest  Level FlightAware Approximate
Sat 01:13:00 AM -27.1306 160.5235 226° Southwest  Level FlightAware Approximate
Sat 01:13:18 AM -27.1935 160.4490 223° Southwest 34,000  Level Aus ATC (Calculated)
Sat 01:15:00 AM -27.3232 160.2948 227° Southwest  Level FlightAware Approximate
Sat 01:15:18 AM -27.3933 160.2114 223° Southwest 34,000  Level Aus ATC (Calculated)
Sat 01:16:00 AM -27.3995 160.2040 227° Southwest  Level FlightAware Approximate
Sat 01:17:00 AM -27.5228 160.0567 227° Southwest  Level FlightAware Approximate
Sat 01:17:18 AM -27.6093 159.9530 222° Southwest 34,000  Level Aus ATC (Calculated)
Sat 01:19:00 AM -27.7385 159.7977 227° Southwest  Level FlightAware Approximate
Sat 01:20:00 AM -27.8144 159.7062 227° Southwest  Level FlightAware Approximate
Sat 01:21:00 AM -27.8902 159.6145 227° Southwest  Level FlightAware Approximate
Sat 01:21:53 AM -28.0532 159.4169 222° Southwest 34,000  Level Aus ATC (Calculated)
Sat 01:22:00 AM -27.9660 159.5227 227° Southwest  Level FlightAware Approximate
Sat 01:23:00 AM -28.1376 159.3141 227° Southwest  Level FlightAware Approximate
Sat 01:23:35 AM -28.2040 159.2332 221° Southwest 34,000  Level Aus ATC (Calculated)
Sat 01:24:00 AM -28.2132 159.2219 227° Southwest  Level FlightAware Approximate
Sat 01:25:00 AM -28.3171 159.0893 227° Southwest  Level Estimated
Sat 01:25:03 AM -28.3359 159.0718 220° Southwest 34,000  Level Aus ATC (Calculated)
Sat 01:25:32 AM -28.3767 159.0217 220° Southwest 34,000  Level Aus ATC (Calculated)
Sat 01:27:00 AM -28.4960 158.8748 227° Southwest  Level FlightAware Approximate
Sat 01:28:00 AM -28.5773 158.7745 227° Southwest  Level FlightAware Approximate
Sat 01:28:17 AM -28.6210 158.7204 219° Southwest 34,000  Level Aus ATC (Calculated)
Sat 01:30:00 AM -28.7604 158.5477 227° Southwest  Level FlightAware Approximate
Sat 01:31:00 AM -28.8414 158.4469 227° Southwest  Level FlightAware Approximate
Sat 01:32:00 AM -28.9224 158.3459 227° Southwest  Level FlightAware Approximate
Sat 01:33:00 AM -29.0033 158.2447 228° Southwest  Level FlightAware Approximate
Sat 01:33:12 AM -29.0673 158.1645 211° Southwest 34,000  Level Aus ATC (Calculated)
Sat 01:35:00 AM -29.2126 157.9818 228° Southwest  Level FlightAware Approximate
Sat 01:36:00 AM -29.2932 157.8801 228° Southwest  Level FlightAware Approximate
Sat 01:37:00 AM -29.3738 157.7782 228° Southwest  Level FlightAware Approximate
Sat 01:38:00 AM -29.4543 157.6761 228° Southwest  Level FlightAware Approximate
Sat 01:38:11 AM -29.4709 157.6550 171° South 34,000  Level Aus ATC (Calculated)
Sat 01:40:00 AM -29.6169 157.4691 228° Southwest  Level FlightAware Approximate
Sat 01:41:00 AM -29.6971 157.3666 228° Southwest  Level FlightAware Approximate
Sat 01:41:09 AM -29.7523 157.2959 86° East 34,000  Level Aus ATC (Calculated)
Sat 01:43:00 AM -29.9004 157.1056 228° Southwest  Level FlightAware Approximate
Sat 01:43:10 AM -29.9126 157.0899 71° East 34,000  Level Aus ATC (Calculated)
Sat 01:45:00 AM -30.0592 156.9006 228° Southwest  Level FlightAware Approximate
Sat 01:45:55 AM -30.1525 156.7795 62° Northeast 34,000  Level Aus ATC (Calculated)
Sat 01:46:00 AM -30.1390 156.7972 228° Southwest  Level FlightAware Approximate
Sat 01:46:15 AM -30.1525 156.7795 62° Northeast 34,000  Level Aus ATC (Calculated)
Sat 01:47:10 AM -29.7274 157.6998 228° Southwest 433 498 34,000  Level Aus ATC (RADAR)
Sat 01:47:45 AM -29.7799 157.6429 223° Southwest 442 509 34,000  Level Aus ATC (RADAR)
Sat 01:48:15 AM -29.8231 157.5949 224° Southwest 438 504 34,000  Level Aus ATC (RADAR)
Sat 01:48:50 AM -29.8716 157.5388 225° Southwest 425 489 34,000  Level Aus ATC (RADAR)
Sat 01:49:25 AM -29.9295 157.4773 223° Southwest 473 544 34,000  Level Aus ATC (RADAR)
Sat 01:50:04 AM -29.9896 157.4103 224° Southwest 460 529 34,000  Level Aus ATC (RADAR)
Sat 01:50:39 AM -30.0423 157.3517 224° Southwest 456 525 34,000  Level Aus ATC (RADAR)
Sat 01:51:34 AM -30.1221 157.2610 224° Southwest 448 516 34,000  Level Aus ATC (RADAR)
Sat 01:51:59 AM -30.1595 157.2192 224° Southwest 450 518 34,000  Level Aus ATC (RADAR)
Sat 01:52:34 AM -30.2143 157.1587 224° Southwest 458 527 34,000  Level Aus ATC (RADAR)
Sat 01:53:14 AM -30.2749 157.0908 224° Southwest 457 526 34,000  Level Aus ATC (RADAR)
Sat 01:53:49 AM -30.3279 157.0311 224° Southwest 456 525 34,000  Level Aus ATC (RADAR)
Sat 01:54:24 AM -30.3809 156.9715 224° Southwest 456 525 34,000  Level Aus ATC (RADAR)
Sat 01:54:54 AM -30.4265 156.9207 224° Southwest 456 525 34,000  Level Aus ATC (RADAR)
Sat 01:55:29 AM -30.4780 156.8623 224° Southwest 450 518 34,000  Level Aus ATC (RADAR)
Sat 01:56:09 AM -30.5391 156.7937 224° Southwest 456 525 34,000  Level Aus ATC (RADAR)
Sat 01:56:44 AM -30.5924 156.7335 224° Southwest 457 526 34,000  Level Aus ATC (RADAR)
Sat 01:57:19 AM -30.6459 156.6733 224° Southwest 459 528 34,000  Level Aus ATC (RADAR)
Sat 01:57:49 AM -30.6920 156.6214 224° Southwest 460 529 34,000  Level Aus ATC (RADAR)
Sat 01:58:24 AM -30.7452 156.5607 224° Southwest 460 529 34,000  Level Aus ATC (RADAR)
Sat 01:58:54 AM -30.7909 156.5089 224° Southwest 459 528 34,000 -185 Level Aus ATC (RADAR)
Sat 01:59:29 AM -30.8437 156.4491 224° Southwest 457 526 33,800 -185 Descending Aus ATC (RADAR)
Sat 01:59:59 AM -30.8881 156.3983 224° Southwest 452 520 33,800  Level Aus ATC (RADAR)
Sat 02:00:34 AM -30.9405 156.3386 224° Southwest 452 520 33,800 500 Level Aus ATC (RADAR)
Sat 02:01:23 AM -31.0148 156.2535 224° Southwest 450 518 34,500 1,000 Climbing Aus ATC (RADAR)
Sat 02:01:58 AM -31.0670 156.1943 224° Southwest 449 517 35,200 1,200 Climbing Aus ATC (RADAR)
Sat 02:02:33 AM -31.1180 156.1356 225° Southwest 444 511 35,900 1,886 Climbing Aus ATC (RADAR)
Sat 02:03:08 AM -31.1686 156.0779 224° Southwest 438 504 37,400 1,629 Climbing Aus ATC (RADAR)
Sat 02:03:43 AM -31.2159 156.0228 225° Southwest 421 484 37,800 369 Climbing Aus ATC (RADAR)
Sat 02:04:13 AM -31.2566 155.9758 225° Southwest 415 478 37,800  Level Aus ATC (RADAR)
Sat 02:04:48 AM -31.3056 155.9197 224° Southwest 420 483 37,800  Level Aus ATC (RADAR)
Sat 02:05:23 AM -31.3544 155.8631 225° Southwest 423 487 37,800  Level Aus ATC (RADAR)
Sat 02:05:58 AM -31.4036 155.8067 224° Southwest 425 489 37,800  Level Aus ATC (RADAR)
Sat 02:06:28 AM -31.4457 155.7581 225° Southwest 426 490 37,800  Level Aus ATC (RADAR)
Sat 02:06:58 AM -31.4878 155.7091 225° Southwest 426 490 37,800 194 Level Aus ATC (RADAR)
Sat 02:07:30 AM -31.5270 155.6640 225° Southwest 429 494 38,000  Climbing FlightAware ADS-B
Sat 02:07:33 AM -31.5373 155.6519 225° Southwest 428 493 37,800  Descending Aus ATC (RADAR)
Sat 02:08:07 AM -31.5770 155.6060 225° Southwest 429 494 38,000  Climbing FlightAware ADS-B
Sat 02:08:08 AM -31.5865 155.5949 225° Southwest 428 493 37,800 -387 Descending Aus ATC (RADAR)
Sat 02:08:38 AM -31.6286 155.5455 225° Southwest 428 493 37,800 293 Level Aus ATC (RADAR)
Sat 02:08:49 AM -31.6350 155.5380 225° Southwest 428 493 38,000 194 Climbing FlightAware ADS-B
Sat 02:09:40 AM -31.6960 155.4660 225° Southwest 428 493 38,000 -203 Level FlightAware ADS-B
Sat 02:09:48 AM -31.7261 155.4314 225° Southwest 425 489 37,800 -324 Descending Aus ATC (RADAR)
Sat 02:10:17 AM -31.7676 155.3830 225° Southwest 422 486 37,800 226 Level Aus ATC (RADAR)
Sat 02:10:41 AM -31.7690 155.3810 225° Southwest 428 493 38,000 333 Climbing FlightAware ADS-B
Sat 02:10:53 AM -31.7830 155.3640 226° Southwest 428 493 38,000 -182 Level FlightAware ADS-B
Sat 02:11:47 AM -31.8930 155.2358 226° Southwest 425 489 37,800  Descending Aus ATC (RADAR)
Sat 02:11:54 AM -31.8930 155.2360 226° Southwest 427 491 38,000 324 Climbing FlightAware ADS-B
Sat 02:12:24 AM -31.9380 155.1830 225° Southwest 427 491 38,000 -129 Level FlightAware ADS-B
Sat 02:13:27 AM -32.0327 155.0713 225° Southwest 429 494 37,800  Descending Aus ATC (RADAR)
Sat 02:13:34 AM -32.0360 155.0680 225° Southwest 427 491 38,000 400 Climbing FlightAware ADS-B
Sat 02:13:57 AM -32.0680 155.0300 225° Southwest 427 491 38,000 -190 Level FlightAware ADS-B
Sat 02:14:37 AM -32.1298 154.9568 225° Southwest 423 487 37,800  Descending Aus ATC (RADAR)
Sat 02:14:46 AM -32.1360 154.9490 225° Southwest 416 479 38,000 214 Climbing FlightAware ADS-B
Sat 02:15:33 AM -32.1950 154.8800 225° Southwest 417 480 38,000 -235 Level FlightAware ADS-B
Sat 02:15:37 AM -32.2113 154.8601 225° Southwest 418 481 37,800 -308 Descending Aus ATC (RADAR)
Sat 02:16:12 AM -32.2592 154.8029 225° Southwest 422 486 37,800 333 Level Aus ATC (RADAR)
Sat 02:16:13 AM -32.2540 154.8090 225° Southwest 422 486 38,000 333 Climbing FlightAware ADS-B
Sat 02:16:48 AM -32.3050 154.7490 225° Southwest 425 489 38,000 -308 Level FlightAware ADS-B
Sat 02:16:52 AM -32.3145 154.7376 225° Southwest 423 487 37,800  Descending Aus ATC (RADAR)
Sat 02:17:28 AM -32.3570 154.6870 225° Southwest 419 482 38,000 182 Climbing FlightAware ADS-B
Sat 02:17:58 AM -32.4020 154.6330 225° Southwest 417 480 38,000  Level FlightAware ADS-B
Sat 02:18:29 AM -32.4420 154.5850 225° Southwest 415 478 38,000 -308 Level FlightAware ADS-B
Sat 02:18:37 AM -32.4575 154.5665 225° Southwest 413 475 37,800  Descending Aus ATC (RADAR)
Sat 02:19:09 AM -32.4940 154.5220 225° Southwest 410 472 38,000  Climbing FlightAware ADS-B
Sat 02:19:12 AM -32.5042 154.5106 225° Southwest 411 473 37,800 -364 Descending Aus ATC (RADAR)
Sat 02:19:42 AM -32.5437 154.4629 225° Southwest 408 470 37,800 375 Level Aus ATC (RADAR)
Sat 02:19:44 AM -32.5360 154.4710 225° Southwest 409 471 38,000  Climbing FlightAware ADS-B
Sat 02:20:16 AM -32.5902 154.4072 225° Southwest 408 470 37,800  Descending Aus ATC (RADAR)
Sat 02:20:18 AM -32.5880 154.4100 225° Southwest 408 470 38,000  Climbing FlightAware ADS-B
Sat 02:21:21 AM -32.6755 154.3043 225° Southwest 406 467 37,800  Descending Aus ATC (RADAR)
Sat 02:21:32 AM -32.6850 154.2930 225° Southwest 404 465 38,000  Climbing FlightAware ADS-B
Sat 02:22:06 AM -32.7345 154.2336 225° Southwest 404 465 37,800  Descending Aus ATC (RADAR)
Sat 02:22:08 AM -32.7320 154.2370 225° Southwest 403 464 38,000 333 Climbing FlightAware ADS-B
Sat 02:22:42 AM -32.7720 154.1880 226° Southwest 406 467 38,000  Level FlightAware ADS-B
Sat 02:23:24 AM -32.8320 154.1160 225° Southwest 407 468 38,000  Level FlightAware ADS-B
Sat 02:24:13 AM -32.8850 154.0280 225° Southwest 395 455 38,000 -115 Level FlightAware ADS-B
Sat 02:24:16 AM -32.8915 154.0161 225° Southwest 406 467 37,900 -158 Descending Aus ATC (RADAR)
Sat 02:24:51 AM -32.9126 153.9441 225° Southwest 397 457 37,900 162 Level Aus ATC (RADAR)
Sat 02:24:53 AM -32.9120 153.9470 225° Southwest 402 463 38,000 140 Climbing FlightAware ADS-B
Sat 02:25:34 AM -32.9390 153.8610 249° West 412 474 38,000  Level FlightAware ADS-B
Sat 02:26:26 AM -32.9740 153.7500 249° West 411 473 38,000 -105 Level FlightAware ADS-B
Sat 02:26:31 AM -32.9792 153.7336 249° West 407 468 37,900  Descending Aus ATC (RADAR)
Sat 02:27:02 AM -32.9980 153.6750 249° West 403 464 38,000  Climbing FlightAware ADS-B
Sat 02:27:11 AM -33.0059 153.6508 249° West 401 461 37,900 -176 Descending Aus ATC (RADAR)
Sat 02:27:36 AM -33.0255 153.6007 249° West 398 458 37,900 231 Level Aus ATC (RADAR)
Sat 02:27:37 AM -33.0240 153.6060 249° West 409 471 38,000  Climbing FlightAware ADS-B
Sat 02:28:10 AM -33.0677 153.5387 249° West 409 471 37,900  Descending Aus ATC (RADAR)
Sat 02:28:35 AM -33.0910 153.5040 249° West 411 473 38,000 107 Climbing FlightAware ADS-B
Sat 02:29:06 AM -33.1290 153.4480 231° Southwest 412 474 38,000 -71 Level FlightAware ADS-B
Sat 02:30:00 AM -33.1991 153.3424 231° Southwest 418 481 37,900  Descending Aus ATC (RADAR)
Sat 02:30:04 AM -33.1980 153.3430 231° Southwest 420 483 38,000  Climbing FlightAware ADS-B
Sat 02:30:35 AM -33.2414 153.2783 231° Southwest 422 486 37,900  Descending Aus ATC (RADAR)
Sat 02:30:40 AM -33.2430 153.2760 231° Southwest 422 486 38,000  Climbing FlightAware ADS-B
Sat 02:31:10 AM -33.2839 153.2148 231° Southwest 421 484 37,900  Descending Aus ATC (RADAR)
Sat 02:31:22 AM -33.2920 153.2020 231° Southwest 422 486 38,000 118 Climbing FlightAware ADS-B
Sat 02:32:01 AM -33.3410 153.1290 231° Southwest 424 488 38,000  Level FlightAware ADS-B
Sat 02:32:31 AM -33.3780 153.0720 232° Southwest 424 488 38,000 -578 Level FlightAware ADS-B
Sat 02:33:24 AM -33.4520 152.9755 232° Southwest 408 470 37,200 -1,200 Descending Aus ATC (RADAR)
Sat 02:33:41 AM -33.4820 152.9650 232° Southwest 448 516 36,600 -2,605 Descending FlightAware ADS-B
Sat 02:34:40 AM -33.6049 152.9207 232° Southwest 446 513 33,900 -2,516 Descending Aus ATC (RADAR)
Sat 02:34:43 AM -33.6010 152.9220 232° Southwest 451 519 34,000 -2,229 Climbing FlightAware ADS-B
Sat 02:35:15 AM -33.6739 152.8953 232° Southwest 443 510 32,600 -2,108 Descending Aus ATC (RADAR)
Sat 02:35:20 AM -33.6770 152.8950 232° Southwest 446 513 32,700 -1,647 Climbing FlightAware ADS-B
Sat 02:36:06 AM -33.7670 152.8620 197° South 437 503 31,200 -1,976 Descending FlightAware ADS-B
Sat 02:36:42 AM -33.8380 152.8370 196° South 430 495 30,000 -1,869 Descending FlightAware ADS-B
Sat 02:37:07 AM -33.8830 152.8210 196° South 424 488 29,300 -1,754 Descending FlightAware ADS-B
Sat 02:37:47 AM -33.9610 152.7890 196° South 402 463 28,100 -1,962 Descending FlightAware ADS-B
Sat 02:37:59 AM -33.9811 152.7697 196° South 409 471 27,600 -1,750 Descending Aus ATC (RADAR)
Sat 02:38:11 AM -33.9880 152.7550 226° Southwest 362 417 27,400 -1,424 Descending FlightAware ADS-B
Sat 02:38:58 AM -34.0210 152.6740 244° Southwest 347 399 26,200 -1,650 Descending FlightAware ADS-B
Sat 02:39:31 AM -34.0340 152.6130 256° West 331 381 25,200 -1,612 Descending FlightAware ADS-B
Sat 02:40:05 AM -34.0358 152.5475 268° West 420 483 24,400 -1,200 Descending FlightAware ADS-B
Sat 02:40:36 AM -34.0358 152.4920 270° West 311 358 23,900 -1,091 Descending FlightAware ADS-B
Sat 02:41:11 AM -34.0358 152.5303 90° East 307 353 23,200 -1,358 Descending FlightAware ADS-B
Sat 02:41:29 AM -34.0358 152.5303 90° East 420 483 22,700 -1,714 Descending FlightAware ADS-B
Sat 02:41:39 AM -34.0358 152.5303 90° East 300 345 22,400 -1,636 Descending FlightAware ADS-B
Sat 02:42:24 AM -34.0354 152.3119 270° West 296 341 21,200 -1,610 Descending FlightAware ADS-B
Sat 02:43:01 AM -34.0354 152.2506 270° West 295 339 20,200 -1,629 Descending FlightAware ADS-B
Sat 02:43:34 AM -34.0354 152.1978 270° West 287 330 19,300 -2,104 Descending FlightAware ADS-B
Sat 02:44:18 AM -34.0349 152.1272 270° West 302 348 17,500 -2,556 Descending FlightAware ADS-B
Sat 02:44:28 AM -34.0348 152.1140 271° West 304 350 17,000 -3,488 Descending FlightAware ADS-B
Sat 02:45:01 AM -34.0329 152.0507 272° West 328 377 15,000 -2,381 Descending FlightAware ADS-B
Sat 02:45:31 AM -34.0278 151.9964 276° West 325 374 14,500 -952 Descending FlightAware ADS-B
Sat 02:46:04 AM -34.0239 151.9581 277° West 328 377 14,000 -917 Descending FlightAware ADS-B
Sat 02:46:43 AM -34.0146 151.8679 277° West 324 373 13,400 -1,029 Descending FlightAware ADS-B
Sat 02:47:14 AM -34.0087 151.8118 277° West 319 367 12,800 -1,091 Descending Aus ATC (RADAR)
Sat 02:47:16 AM -34.0085 151.8083 277° West 321 369 12,800 -882 Level FlightAware ADS-B
Sat 02:47:48 AM -34.0028 151.7520 277° West 318 366 12,300 -1,324 Descending FlightAware ADS-B
Sat 02:48:24 AM -33.9976 151.6985 277° West 310 357 11,300 -1,881 Descending FlightAware ADS-B
Sat 02:48:55 AM -33.9911 151.6362 277° West 316 364 10,200 -2,160 Descending FlightAware ADS-B
Sat 02:49:14 AM -33.9875 151.6025 277° West 318 366 9,500 -1,902 Descending FlightAware ADS-B
Sat 02:49:36 AM -33.9845 151.5744 277° West 311 358 8,900 -1,636 Descending FlightAware ADS-B
Sat 02:49:58 AM -33.9799 151.5303 277° West 293 337 8,300 -1,500 Descending FlightAware ADS-B
Sat 02:50:16 AM -33.9776 151.5077 277° West 279 321 7,900 -1,171 Descending FlightAware ADS-B
Sat 02:50:39 AM -33.9735 151.4682 277° West 266 306 7,500 -1,304 Descending FlightAware ADS-B
Sat 02:51:02 AM -33.9699 151.4316 277° West 265 305 6,900 -1,463 Descending FlightAware ADS-B
Sat 02:51:20 AM -33.9671 151.4046 277° West 262 302 6,500 -1,077 Descending FlightAware ADS-B
Sat 02:51:41 AM -33.9639 151.3760 278° West 256 295 6,200 -585 Descending FlightAware ADS-B
Sat 02:52:01 AM -33.9605 151.3468 278° West 252 290 6,100 -188 Descending FlightAware ADS-B
Sat 02:52:13 AM -33.9586 151.3309 278° West 250 288 6,100  Level FlightAware ADS-B
Sat 02:52:30 AM -33.9496 151.3100 297° West 256 295 6,100  Level FlightAware ADS-B
Sat 02:52:41 AM -33.9496 151.3100 297° West 262 302 6,100  Level FlightAware ADS-B
Sat 02:52:52 AM -33.9264 151.2948 331° Northwest 268 308 6,100  Level FlightAware ADS-B
Sat 02:53:13 AM -33.9015 151.2873 346° North 267 307 6,100 -167 Level FlightAware ADS-B
Sat 02:53:28 AM -33.8831 151.2816 346° North 268 308 6,000 -1,000 Descending FlightAware ADS-B
Sat 02:53:43 AM -33.8646 151.2757 345° North 272 313 5,600 -1,543 Descending FlightAware ADS-B
Sat 02:54:03 AM -33.8409 151.2681 345° North 275 316 5,100 -1,350 Descending FlightAware ADS-B
Sat 02:54:23 AM -33.8157 151.2600 345° North 273 314 4,700 -750 Descending FlightAware ADS-B
Sat 02:54:43 AM -33.7917 151.2522 345° North 273 314 4,600 -571 Descending FlightAware ADS-B
Sat 02:55:05 AM -33.7646 151.2430 344° North 270 311 4,300 -714 Descending FlightAware ADS-B
Sat 02:55:25 AM -33.7407 151.2340 343° North 268 308 4,100 -600 Descending FlightAware ADS-B
Sat 02:55:35 AM -33.7307 151.2256 325° Northwest 261 300 4,000 -462 Descending FlightAware ADS-B
Sat 02:55:38 AM -33.7287 151.2228 312° West 258 297 4,000 -600 Level FlightAware ADS-B
Sat 02:55:45 AM -33.7242 151.2141 302° West 250 288 3,900 -375 Descending FlightAware ADS-B
Sat 02:55:54 AM -33.7212 151.2039 289° West 242 278 3,900 -200 Level FlightAware ADS-B
Sat 02:56:15 AM -33.7149 151.1783 286° West 221 254 3,800 -387 Descending FlightAware ADS-B
Sat 02:56:25 AM -33.7126 151.1690 287° West 217 250 3,700 -214 Descending FlightAware ADS-B
Sat 02:56:43 AM -33.7144 151.1464 265° West 187 215 3,700  Level FlightAware ADS-B
Sat 02:56:52 AM -33.7193 151.1404 225° Southwest 178 205 3,700  Level FlightAware ADS-B
Sat 02:56:57 AM -33.7237 151.1378 206° Southwest 177 204 3,700  Level FlightAware ADS-B
Sat 02:57:03 AM -33.7265 151.1367 199° South 176 203 3,700 -250 Level FlightAware ADS-B
Sat 02:57:21 AM -33.7408 151.1317 196° South 177 204 3,600 -200 Descending FlightAware ADS-B
Sat 02:57:33 AM -33.7519 151.1286 194° South 173 199 3,600 -571 Level FlightAware ADS-B
Sat 02:57:42 AM -33.7595 151.1284 181° South 174 200 3,400 -1,034 Descending FlightAware ADS-B
Sat 02:58:02 AM -33.7752 151.1316 171° South 171 197 3,100 -878 Descending FlightAware ADS-B
Sat 02:58:23 AM -33.7855 151.1343 167° South 162 186 2,800 -750 Descending FlightAware ADS-B
Sat 02:58:42 AM -33.8043 151.1393 168° South 158 182 2,600 -764 Descending FlightAware ADS-B
Sat 02:59:18 AM -33.8291 151.1456 168° South 141 162 2,100 -842 Descending FlightAware ADS-B
Sat 02:59:39 AM -33.8420 151.1489 168° South 139 160 1,800 -878 Descending FlightAware ADS-B
Sat 02:59:59 AM -33.8538 151.1520 168° South 143 165 1,500 -789 Descending FlightAware ADS-B
Sat 03:00:17 AM -33.8669 151.1553 168° South 142 163 1,300 -615 Descending FlightAware ADS-B
Sat 03:00:38 AM -33.8788 151.1584 168° South 130 150 1,100 -769 Descending FlightAware ADS-B
Sat 03:00:56 AM -33.8867 151.1604 168° South 131 151 800 -769 Descending FlightAware ADS-B
Sat 03:01:17 AM -33.8950 151.1628 167° South 132 152 600 -600 Descending FlightAware ADS-B
Sat 03:01:36 AM -33.9135 151.1675 168° South 130 150 400 -632 Descending FlightAware ADS-B
Sat 03:02:27 AM -33.9420 151.1750 168° South 76 87 -471 Descending FlightAware ADS-B

Login

Don't have an account? Register now (free) for customized features, flight alerts, and more!